sensor_id;sensor_type;location;lat;lon;timestamp;temperature;humidity
8593;DHT22;4334;49.982;8.398;2022-07-06T00:01:45;18.00;99.90
8593;DHT22;4334;49.982;8.398;2022-07-06T00:04:12;18.10;99.90
8593;DHT22;4334;49.982;8.398;2022-07-06T00:06:39;18.00;99.90
8593;DHT22;4334;49.982;8.398;2022-07-06T00:09:06;17.90;99.90
8593;DHT22;4334;49.982;8.398;2022-07-06T00:11:33;17.90;99.90
8593;DHT22;4334;49.982;8.398;2022-07-06T00:14:00;17.90;99.90
8593;DHT22;4334;49.982;8.398;2022-07-06T00:16:28;17.70;99.90
8593;DHT22;4334;49.982;8.398;2022-07-06T00:18:54;17.60;99.90
8593;DHT22;4334;49.982;8.398;2022-07-06T00:21:21;17.60;99.90
8593;DHT22;4334;49.982;8.398;2022-07-06T00:23:48;17.60;99.90
8593;DHT22;4334;49.982;8.398;2022-07-06T00:26:15;17.60;99.90
8593;DHT22;4334;49.982;8.398;2022-07-06T00:28:42;17.50;99.90
8593;DHT22;4334;49.982;8.398;2022-07-06T00:33:37;17.60;99.90
8593;DHT22;4334;49.982;8.398;2022-07-06T00:36:04;17.90;99.90
8593;DHT22;4334;49.982;8.398;2022-07-06T00:38:31;17.50;99.90
8593;DHT22;4334;49.982;8.398;2022-07-06T00:40:58;17.40;99.90
8593;DHT22;4334;49.982;8.398;2022-07-06T00:43:25;17.40;99.90
8593;DHT22;4334;49.982;8.398;2022-07-06T00:45:51;17.40;99.90
8593;DHT22;4334;49.982;8.398;2022-07-06T00:48:18;17.40;99.90
8593;DHT22;4334;49.982;8.398;2022-07-06T00:50:46;17.40;99.90
8593;DHT22;4334;49.982;8.398;2022-07-06T00:58:08;17.30;99.90
8593;DHT22;4334;49.982;8.398;2022-07-06T01:00:36;17.20;99.90
8593;DHT22;4334;49.982;8.398;2022-07-06T01:03:04;17.20;99.90
8593;DHT22;4334;49.982;8.398;2022-07-06T01:07:59;17.30;99.90
8593;DHT22;4334;49.982;8.398;2022-07-06T01:15:22;17.20;99.90
8593;DHT22;4334;49.982;8.398;2022-07-06T01:20:19;17.10;99.90
8593;DHT22;4334;49.982;8.398;2022-07-06T01:22:47;17.00;99.90
8593;DHT22;4334;49.982;8.398;2022-07-06T01:25:15;17.00;99.90
8593;DHT22;4334;49.982;8.398;2022-07-06T01:27:43;16.90;99.90
8593;DHT22;4334;49.982;8.398;2022-07-06T01:30:11;16.90;99.90
8593;DHT22;4334;49.982;8.398;2022-07-06T01:32:39;16.80;99.90
8593;DHT22;4334;49.982;8.398;2022-07-06T01:35:08;16.70;99.90
8593;DHT22;4334;49.982;8.398;2022-07-06T01:37:37;16.60;99.90
8593;DHT22;4334;49.982;8.398;2022-07-06T01:40:06;16.60;99.90
8593;DHT22;4334;49.982;8.398;2022-07-06T01:42:33;16.50;99.90
8593;DHT22;4334;49.982;8.398;2022-07-06T01:49:58;16.40;99.90
8593;DHT22;4334;49.982;8.398;2022-07-06T01:52:25;16.40;99.90
8593;DHT22;4334;49.982;8.398;2022-07-06T01:54:53;16.40;99.90
8593;DHT22;4334;49.982;8.398;2022-07-06T02:12:05;16.30;99.90
8593;DHT22;4334;49.982;8.398;2022-07-06T02:29:16;16.10;99.90
8593;DHT22;4334;49.982;8.398;2022-07-06T02:34:09;16.10;99.90
8593;DHT22;4334;49.982;8.398;2022-07-06T02:36:36;17.50;99.90
8593;DHT22;4334;49.982;8.398;2022-07-06T02:39:03;16.10;99.90
8593;DHT22;4334;49.982;8.398;2022-07-06T02:41:30;16.00;99.90
8593;DHT22;4334;49.982;8.398;2022-07-06T02:43:56;19.40;99.90
8593;DHT22;4334;49.982;8.398;2022-07-06T02:46:25;15.90;99.90
8593;DHT22;4334;49.982;8.398;2022-07-06T02:48:51;16.00;99.90
8593;DHT22;4334;49.982;8.398;2022-07-06T02:51:18;15.90;99.90
8593;DHT22;4334;49.982;8.398;2022-07-06T02:53:45;15.90;99.90
8593;DHT22;4334;49.982;8.398;2022-07-06T02:56:12;15.90;99.90
8593;DHT22;4334;49.982;8.398;2022-07-06T02:58:38;15.90;99.90
8593;DHT22;4334;49.982;8.398;2022-07-06T03:01:05;15.90;99.90
8593;DHT22;4334;49.982;8.398;2022-07-06T03:03:34;15.80;99.90
8593;DHT22;4334;49.982;8.398;2022-07-06T03:06:00;15.80;99.90
8593;DHT22;4334;49.982;8.398;2022-07-06T03:08:27;15.80;99.90
8593;DHT22;4334;49.982;8.398;2022-07-06T03:10:54;15.70;99.90
8593;DHT22;4334;49.982;8.398;2022-07-06T03:13:20;15.70;99.90
8593;DHT22;4334;49.982;8.398;2022-07-06T03:15:47;15.60;99.90
8593;DHT22;4334;49.982;8.398;2022-07-06T03:18:14;15.60;99.90
8593;DHT22;4334;49.982;8.398;2022-07-06T03:20:42;15.60;99.90
8593;DHT22;4334;49.982;8.398;2022-07-06T03:23:09;15.60;99.90
8593;DHT22;4334;49.982;8.398;2022-07-06T03:25:36;16.00;99.90
8593;DHT22;4334;49.982;8.398;2022-07-06T03:28:03;19.60;99.90
8593;DHT22;4334;49.982;8.398;2022-07-06T03:30:29;15.50;99.90
8593;DHT22;4334;49.982;8.398;2022-07-06T03:32:56;20.20;99.90
8593;DHT22;4334;49.982;8.398;2022-07-06T03:35:23;20.10;99.90
8593;DHT22;4334;49.982;8.398;2022-07-06T03:37:51;15.40;99.90
8593;DHT22;4334;49.982;8.398;2022-07-06T03:40:18;15.40;99.90
8593;DHT22;4334;49.982;8.398;2022-07-06T03:42:45;15.40;99.90
8593;DHT22;4334;49.982;8.398;2022-07-06T03:45:11;15.40;99.90
8593;DHT22;4334;49.982;8.398;2022-07-06T03:47:38;15.40;99.90
8593;DHT22;4334;49.982;8.398;2022-07-06T03:50:07;15.40;99.90
8593;DHT22;4334;49.982;8.398;2022-07-06T03:52:34;15.40;99.90
8593;DHT22;4334;49.982;8.398;2022-07-06T03:55:07;15.40;99.90
8593;DHT22;4334;49.982;8.398;2022-07-06T03:57:34;15.40;99.90
8593;DHT22;4334;49.982;8.398;2022-07-06T04:00:01;15.30;99.90
8593;DHT22;4334;49.982;8.398;2022-07-06T04:02:27;19.60;99.90
8593;DHT22;4334;49.982;8.398;2022-07-06T04:04:54;15.40;99.90
8593;DHT22;4334;49.982;8.398;2022-07-06T04:07:21;15.40;99.90
8593;DHT22;4334;49.982;8.398;2022-07-06T04:09:47;15.40;99.90
8593;DHT22;4334;49.982;8.398;2022-07-06T04:12:15;15.30;99.90
8593;DHT22;4334;49.982;8.398;2022-07-06T04:14:42;15.40;99.90
8593;DHT22;4334;49.982;8.398;2022-07-06T04:17:09;15.40;99.90
8593;DHT22;4334;49.982;8.398;2022-07-06T04:19:50;15.40;99.90
8593;DHT22;4334;49.982;8.398;2022-07-06T04:22:16;15.40;99.90
8593;DHT22;4334;49.982;8.398;2022-07-06T04:24:43;15.50;99.90
8593;DHT22;4334;49.982;8.398;2022-07-06T04:27:10;17.00;99.90
8593;DHT22;4334;49.982;8.398;2022-07-06T04:29:38;15.40;99.90
8593;DHT22;4334;49.982;8.398;2022-07-06T04:32:05;15.40;99.90
8593;DHT22;4334;49.982;8.398;2022-07-06T04:34:32;15.40;99.90
8593;DHT22;4334;49.982;8.398;2022-07-06T04:36:59;15.50;99.90
8593;DHT22;4334;49.982;8.398;2022-07-06T04:39:25;15.60;99.90
8593;DHT22;4334;49.982;8.398;2022-07-06T04:41:53;16.00;99.90
8593;DHT22;4334;49.982;8.398;2022-07-06T04:44:19;16.30;99.90
8593;DHT22;4334;49.982;8.398;2022-07-06T04:46:47;16.50;99.90
8593;DHT22;4334;49.982;8.398;2022-07-06T04:49:14;16.30;99.90
8593;DHT22;4334;49.982;8.398;2022-07-06T04:51:41;16.40;99.90
8593;DHT22;4334;49.982;8.398;2022-07-06T04:54:07;16.70;99.90
8593;DHT22;4334;49.982;8.398;2022-07-06T04:56:34;17.10;99.90
8593;DHT22;4334;49.982;8.398;2022-07-06T04:59:01;21.60;99.90
8593;DHT22;4334;49.982;8.398;2022-07-06T05:01:28;17.90;99.90
8593;DHT22;4334;49.982;8.398;2022-07-06T05:03:56;22.90;99.90
8593;DHT22;4334;49.982;8.398;2022-07-06T05:06:22;18.20;99.90
8593;DHT22;4334;49.982;8.398;2022-07-06T05:08:49;18.30;99.90
8593;DHT22;4334;49.982;8.398;2022-07-06T05:11:16;18.70;99.90
8593;DHT22;4334;49.982;8.398;2022-07-06T05:13:43;23.40;99.90
8593;DHT22;4334;49.982;8.398;2022-07-06T05:16:09;19.70;99.90
8593;DHT22;4334;49.982;8.398;2022-07-06T05:18:36;19.60;99.90
8593;DHT22;4334;49.982;8.398;2022-07-06T05:21:04;21.80;99.90
8593;DHT22;4334;49.982;8.398;2022-07-06T05:23:31;19.80;99.90
8593;DHT22;4334;49.982;8.398;2022-07-06T05:25:57;19.80;99.90
8593;DHT22;4334;49.982;8.398;2022-07-06T05:28:24;22.30;99.90
8593;DHT22;4334;49.982;8.398;2022-07-06T05:30:51;19.80;99.90
8593;DHT22;4334;49.982;8.398;2022-07-06T05:33:17;19.60;99.90
8593;DHT22;4334;49.982;8.398;2022-07-06T05:35:44;19.10;99.90
8593;DHT22;4334;49.982;8.398;2022-07-06T05:38:12;18.60;99.90
8593;DHT22;4334;49.982;8.398;2022-07-06T05:40:39;18.20;99.90
8593;DHT22;4334;49.982;8.398;2022-07-06T05:43:06;18.40;99.90
8593;DHT22;4334;49.982;8.398;2022-07-06T05:45:32;20.10;99.90
8593;DHT22;4334;49.982;8.398;2022-07-06T05:47:59;17.70;99.90
8593;DHT22;4334;49.982;8.398;2022-07-06T05:50:43;17.50;99.90
8593;DHT22;4334;49.982;8.398;2022-07-06T05:53:10;20.60;99.90
8593;DHT22;4334;49.982;8.398;2022-07-06T05:55:38;18.70;99.90
8593;DHT22;4334;49.982;8.398;2022-07-06T05:58:05;19.80;99.90
8593;DHT22;4334;49.982;8.398;2022-07-06T06:00:32;20.30;99.90
8593;DHT22;4334;49.982;8.398;2022-07-06T06:02:59;20.50;99.90
8593;DHT22;4334;49.982;8.398;2022-07-06T06:05:26;20.20;99.90
8593;DHT22;4334;49.982;8.398;2022-07-06T06:07:52;20.90;99.90
8593;DHT22;4334;49.982;8.398;2022-07-06T06:10:20;22.40;99.90
8593;DHT22;4334;49.982;8.398;2022-07-06T06:12:49;18.30;99.90
8593;DHT22;4334;49.982;8.398;2022-07-06T06:15:16;18.10;99.90
8593;DHT22;4334;49.982;8.398;2022-07-06T06:17:43;21.40;99.90
8593;DHT22;4334;49.982;8.398;2022-07-06T06:20:12;19.50;99.90
8593;DHT22;4334;49.982;8.398;2022-07-06T06:22:46;20.30;99.90
8593;DHT22;4334;49.982;8.398;2022-07-06T06:25:13;20.80;99.90
8593;DHT22;4334;49.982;8.398;2022-07-06T06:27:40;21.30;99.90
8593;DHT22;4334;49.982;8.398;2022-07-06T06:30:10;21.40;99.90
8593;DHT22;4334;49.982;8.398;2022-07-06T06:32:37;21.40;99.10
8593;DHT22;4334;49.982;8.398;2022-07-06T06:35:04;21.80;99.90
8593;DHT22;4334;49.982;8.398;2022-07-06T06:37:31;21.60;98.00
8593;DHT22;4334;49.982;8.398;2022-07-06T06:39:58;22.70;99.90
8593;DHT22;4334;49.982;8.398;2022-07-06T06:42:24;21.60;99.90
8593;DHT22;4334;49.982;8.398;2022-07-06T06:44:51;20.80;99.10
8593;DHT22;4334;49.982;8.398;2022-07-06T06:47:19;20.80;98.80
8593;DHT22;4334;49.982;8.398;2022-07-06T06:49:46;20.60;99.20
8593;DHT22;4334;49.982;8.398;2022-07-06T06:52:13;20.30;99.70
8593;DHT22;4334;49.982;8.398;2022-07-06T06:54:39;22.10;98.80
8593;DHT22;4334;49.982;8.398;2022-07-06T06:57:06;23.40;98.30
8593;DHT22;4334;49.982;8.398;2022-07-06T06:59:33;21.10;97.60
8593;DHT22;4334;49.982;8.398;2022-07-06T07:01:59;25.10;99.90
8593;DHT22;4334;49.982;8.398;2022-07-06T07:04:27;20.40;98.60
8593;DHT22;4334;49.982;8.398;2022-07-06T07:06:56;20.10;99.70
8593;DHT22;4334;49.982;8.398;2022-07-06T07:09:23;20.90;99.50
8593;DHT22;4334;49.982;8.398;2022-07-06T07:11:50;20.20;98.10
8593;DHT22;4334;49.982;8.398;2022-07-06T07:14:16;20.00;99.30
8593;DHT22;4334;49.982;8.398;2022-07-06T07:16:43;20.00;99.50
8593;DHT22;4334;49.982;8.398;2022-07-06T07:19:10;20.40;98.70
8593;DHT22;4334;49.982;8.398;2022-07-06T07:21:38;20.50;98.80
8593;DHT22;4334;49.982;8.398;2022-07-06T07:24:05;20.60;98.00
8593;DHT22;4334;49.982;8.398;2022-07-06T07:26:32;20.30;97.70
8593;DHT22;4334;49.982;8.398;2022-07-06T07:28:59;19.80;97.80
8593;DHT22;4334;49.982;8.398;2022-07-06T07:31:26;19.70;98.80
8593;DHT22;4334;49.982;8.398;2022-07-06T07:33:53;20.60;99.90
8593;DHT22;4334;49.982;8.398;2022-07-06T07:36:22;20.80;99.90
8593;DHT22;4334;49.982;8.398;2022-07-06T07:38:50;19.80;99.60
8593;DHT22;4334;49.982;8.398;2022-07-06T07:41:17;19.80;99.40
8593;DHT22;4334;49.982;8.398;2022-07-06T07:43:44;19.70;99.90
8593;DHT22;4334;49.982;8.398;2022-07-06T07:46:10;19.80;99.20
8593;DHT22;4334;49.982;8.398;2022-07-06T07:48:37;19.80;99.10
8593;DHT22;4334;49.982;8.398;2022-07-06T07:51:04;20.90;99.40
8593;DHT22;4334;49.982;8.398;2022-07-06T07:53:30;25.20;99.90
8593;DHT22;4334;49.982;8.398;2022-07-06T07:55:58;21.70;97.20
8593;DHT22;4334;49.982;8.398;2022-07-06T07:58:26;22.30;96.60
8593;DHT22;4334;49.982;8.398;2022-07-06T08:00:53;22.80;93.80
8593;DHT22;4334;49.982;8.398;2022-07-06T08:03:20;24.70;94.40
8593;DHT22;4334;49.982;8.398;2022-07-06T08:05:46;21.80;93.10
8593;DHT22;4334;49.982;8.398;2022-07-06T08:08:14;21.20;93.80
8593;DHT22;4334;49.982;8.398;2022-07-06T08:10:41;20.90;94.00
8593;DHT22;4334;49.982;8.398;2022-07-06T08:13:09;20.70;94.20
8593;DHT22;4334;49.982;8.398;2022-07-06T08:15:36;21.60;95.20
8593;DHT22;4334;49.982;8.398;2022-07-06T08:18:03;20.10;94.40
8593;DHT22;4334;49.982;8.398;2022-07-06T08:20:30;20.40;94.20
8593;DHT22;4334;49.982;8.398;2022-07-06T08:22:56;20.70;93.70
8593;DHT22;4334;49.982;8.398;2022-07-06T08:25:23;20.70;93.30
8593;DHT22;4334;49.982;8.398;2022-07-06T08:27:50;20.80;93.10
8593;DHT22;4334;49.982;8.398;2022-07-06T08:30:18;21.20;93.20
8593;DHT22;4334;49.982;8.398;2022-07-06T08:32:44;26.20;94.70
8593;DHT22;4334;49.982;8.398;2022-07-06T08:35:11;22.60;92.00
8593;DHT22;4334;49.982;8.398;2022-07-06T08:37:38;23.70;90.20
8593;DHT22;4334;49.982;8.398;2022-07-06T08:40:06;24.60;89.00
8593;DHT22;4334;49.982;8.398;2022-07-06T08:42:33;25.10;86.50
8593;DHT22;4334;49.982;8.398;2022-07-06T08:45:04;25.10;84.00
8593;DHT22;4334;49.982;8.398;2022-07-06T08:47:35;24.60;83.00
8593;DHT22;4334;49.982;8.398;2022-07-06T08:50:03;24.20;83.70
8593;DHT22;4334;49.982;8.398;2022-07-06T08:52:30;24.30;82.80
8593;DHT22;4334;49.982;8.398;2022-07-06T08:54:57;24.20;82.30
8593;DHT22;4334;49.982;8.398;2022-07-06T08:57:25;24.90;82.30
8593;DHT22;4334;49.982;8.398;2022-07-06T08:59:52;25.50;81.40
8593;DHT22;4334;49.982;8.398;2022-07-06T09:02:23;25.00;80.40
8593;DHT22;4334;49.982;8.398;2022-07-06T09:04:54;26.10;80.90
8593;DHT22;4334;49.982;8.398;2022-07-06T09:07:21;25.20;78.20
8593;DHT22;4334;49.982;8.398;2022-07-06T09:09:49;24.70;77.60
8593;DHT22;4334;49.982;8.398;2022-07-06T09:12:17;24.50;79.40
8593;DHT22;4334;49.982;8.398;2022-07-06T09:14:43;26.60;80.00
8593;DHT22;4334;49.982;8.398;2022-07-06T09:17:12;24.70;77.10
8593;DHT22;4334;49.982;8.398;2022-07-06T09:19:39;25.20;76.50
8593;DHT22;4334;49.982;8.398;2022-07-06T09:22:07;29.70;80.40
8593;DHT22;4334;49.982;8.398;2022-07-06T09:24:41;28.10;77.40
8593;DHT22;4334;49.982;8.398;2022-07-06T09:27:15;25.00;74.20
8593;DHT22;4334;49.982;8.398;2022-07-06T09:29:42;23.70;76.40
8593;DHT22;4334;49.982;8.398;2022-07-06T09:32:09;23.20;76.10
8593;DHT22;4334;49.982;8.398;2022-07-06T09:34:42;23.70;76.20
8593;DHT22;4334;49.982;8.398;2022-07-06T09:37:11;27.50;80.10
8593;DHT22;4334;49.982;8.398;2022-07-06T09:39:38;28.80;78.30
8593;DHT22;4334;49.982;8.398;2022-07-06T09:42:06;24.30;74.70
8593;DHT22;4334;49.982;8.398;2022-07-06T09:44:35;24.60;73.30
8593;DHT22;4334;49.982;8.398;2022-07-06T09:47:04;25.00;74.70
8593;DHT22;4334;49.982;8.398;2022-07-06T09:49:31;24.50;74.30
8593;DHT22;4334;49.982;8.398;2022-07-06T09:52:00;30.20;76.50
8593;DHT22;4334;49.982;8.398;2022-07-06T09:54:28;25.90;71.60
8593;DHT22;4334;49.982;8.398;2022-07-06T09:56:56;27.00;71.50
8593;DHT22;4334;49.982;8.398;2022-07-06T09:59:24;25.60;71.10
8593;DHT22;4334;49.982;8.398;2022-07-06T10:01:53;26.90;70.40
8593;DHT22;4334;49.982;8.398;2022-07-06T10:04:20;25.90;70.30
8593;DHT22;4334;49.982;8.398;2022-07-06T10:06:47;26.90;68.40
8593;DHT22;4334;49.982;8.398;2022-07-06T10:09:14;26.20;68.00
8593;DHT22;4334;49.982;8.398;2022-07-06T10:11:46;25.70;69.80
8593;DHT22;4334;49.982;8.398;2022-07-06T10:14:17;29.60;75.10
8593;DHT22;4334;49.982;8.398;2022-07-06T10:16:45;25.20;70.50
8593;DHT22;4334;49.982;8.398;2022-07-06T10:19:14;25.80;68.60
8593;DHT22;4334;49.982;8.398;2022-07-06T10:21:41;25.60;68.60
8593;DHT22;4334;49.982;8.398;2022-07-06T10:24:09;25.70;68.70
8593;DHT22;4334;49.982;8.398;2022-07-06T10:26:37;25.20;68.20
8593;DHT22;4334;49.982;8.398;2022-07-06T10:29:05;24.90;69.50
8593;DHT22;4334;49.982;8.398;2022-07-06T10:31:34;24.90;69.50
8593;DHT22;4334;49.982;8.398;2022-07-06T10:34:04;25.30;69.50
8593;DHT22;4334;49.982;8.398;2022-07-06T10:36:31;28.70;71.00
8593;DHT22;4334;49.982;8.398;2022-07-06T10:39:02;30.40;72.80
8593;DHT22;4334;49.982;8.398;2022-07-06T10:41:50;25.40;67.30
8593;DHT22;4334;49.982;8.398;2022-07-06T10:44:19;27.70;69.00
8593;DHT22;4334;49.982;8.398;2022-07-06T10:46:53;25.50;66.50
8593;DHT22;4334;49.982;8.398;2022-07-06T10:49:21;25.80;67.00
8593;DHT22;4334;49.982;8.398;2022-07-06T10:51:48;25.70;68.30
8593;DHT22;4334;49.982;8.398;2022-07-06T10:54:16;25.90;68.50
8593;DHT22;4334;49.982;8.398;2022-07-06T10:56:45;27.50;69.50
8593;DHT22;4334;49.982;8.398;2022-07-06T10:59:13;26.30;66.10
8593;DHT22;4334;49.982;8.398;2022-07-06T11:02:12;25.80;66.20
8593;DHT22;4334;49.982;8.398;2022-07-06T11:04:40;25.90;66.60
8593;DHT22;4334;49.982;8.398;2022-07-06T11:07:09;30.30;72.40
8593;DHT22;4334;49.982;8.398;2022-07-06T11:09:37;28.40;66.40
8593;DHT22;4334;49.982;8.398;2022-07-06T11:12:13;26.30;65.10
8593;DHT22;4334;49.982;8.398;2022-07-06T11:14:40;25.80;65.70
8593;DHT22;4334;49.982;8.398;2022-07-06T11:17:09;25.50;65.70
8593;DHT22;4334;49.982;8.398;2022-07-06T11:19:38;28.20;65.90
8593;DHT22;4334;49.982;8.398;2022-07-06T11:22:06;26.20;66.70
8593;DHT22;4334;49.982;8.398;2022-07-06T11:24:35;26.70;63.60
8593;DHT22;4334;49.982;8.398;2022-07-06T11:27:02;27.20;65.30
8593;DHT22;4334;49.982;8.398;2022-07-06T11:29:30;26.80;65.40
8593;DHT22;4334;49.982;8.398;2022-07-06T11:31:57;26.90;65.60
8593;DHT22;4334;49.982;8.398;2022-07-06T11:34:27;26.20;65.10
8593;DHT22;4334;49.982;8.398;2022-07-06T11:36:56;26.60;65.10
8593;DHT22;4334;49.982;8.398;2022-07-06T11:39:26;28.10;62.90
8593;DHT22;4334;49.982;8.398;2022-07-06T11:41:54;31.80;63.70
8593;DHT22;4334;49.982;8.398;2022-07-06T11:44:21;26.90;60.40
8593;DHT22;4334;49.982;8.398;2022-07-06T11:46:48;27.00;61.40
8593;DHT22;4334;49.982;8.398;2022-07-06T11:49:15;27.00;60.70
8593;DHT22;4334;49.982;8.398;2022-07-06T11:51:44;31.60;65.70
8593;DHT22;4334;49.982;8.398;2022-07-06T11:54:13;28.30;63.50
8593;DHT22;4334;49.982;8.398;2022-07-06T11:56:46;27.30;62.10
8593;DHT22;4334;49.982;8.398;2022-07-06T11:59:15;27.00;62.40
8593;DHT22;4334;49.982;8.398;2022-07-06T12:01:42;26.90;61.50
8593;DHT22;4334;49.982;8.398;2022-07-06T12:04:10;31.10;65.40
8593;DHT22;4334;49.982;8.398;2022-07-06T12:06:37;26.20;63.70
8593;DHT22;4334;49.982;8.398;2022-07-06T12:09:04;26.90;64.60
8593;DHT22;4334;49.982;8.398;2022-07-06T12:11:35;32.00;66.20
8593;DHT22;4334;49.982;8.398;2022-07-06T12:14:03;29.30;65.90
8593;DHT22;4334;49.982;8.398;2022-07-06T12:16:38;24.80;64.90
8593;DHT22;4334;49.982;8.398;2022-07-06T12:19:06;24.90;65.70
8593;DHT22;4334;49.982;8.398;2022-07-06T12:21:33;24.40;67.50
8593;DHT22;4334;49.982;8.398;2022-07-06T12:24:00;25.10;66.10
8593;DHT22;4334;49.982;8.398;2022-07-06T12:26:38;25.50;66.40
8593;DHT22;4334;49.982;8.398;2022-07-06T12:29:07;25.80;65.10
8593;DHT22;4334;49.982;8.398;2022-07-06T12:31:37;29.70;68.90
8593;DHT22;4334;49.982;8.398;2022-07-06T12:34:05;25.70;64.50
8593;DHT22;4334;49.982;8.398;2022-07-06T12:36:42;26.00;64.80
8593;DHT22;4334;49.982;8.398;2022-07-06T12:39:11;25.30;63.20
8593;DHT22;4334;49.982;8.398;2022-07-06T12:41:38;25.20;65.00
8593;DHT22;4334;49.982;8.398;2022-07-06T12:44:11;25.30;65.00
8593;DHT22;4334;49.982;8.398;2022-07-06T12:46:39;25.20;64.70
8593;DHT22;4334;49.982;8.398;2022-07-06T12:49:17;25.60;66.30
8593;DHT22;4334;49.982;8.398;2022-07-06T12:51:58;26.20;64.00
8593;DHT22;4334;49.982;8.398;2022-07-06T12:54:27;26.20;62.00
8593;DHT22;4334;49.982;8.398;2022-07-06T12:56:59;27.20;65.40
8593;DHT22;4334;49.982;8.398;2022-07-06T12:59:28;26.50;64.70
8593;DHT22;4334;49.982;8.398;2022-07-06T13:01:55;25.70;63.30
8593;DHT22;4334;49.982;8.398;2022-07-06T13:04:22;28.40;66.30
8593;DHT22;4334;49.982;8.398;2022-07-06T13:06:49;25.70;63.60
8593;DHT22;4334;49.982;8.398;2022-07-06T13:09:16;25.70;63.80
8593;DHT22;4334;49.982;8.398;2022-07-06T13:11:44;26.00;64.20
8593;DHT22;4334;49.982;8.398;2022-07-06T13:14:11;26.70;62.50
8593;DHT22;4334;49.982;8.398;2022-07-06T13:16:39;27.20;64.60
8593;DHT22;4334;49.982;8.398;2022-07-06T13:19:06;27.30;62.50
8593;DHT22;4334;49.982;8.398;2022-07-06T13:21:32;27.40;61.00
8593;DHT22;4334;49.982;8.398;2022-07-06T13:23:59;31.20;64.40
8593;DHT22;4334;49.982;8.398;2022-07-06T13:26:26;28.30;63.30
8593;DHT22;4334;49.982;8.398;2022-07-06T13:28:53;27.50;61.00
8593;DHT22;4334;49.982;8.398;2022-07-06T13:31:20;26.80;62.00
8593;DHT22;4334;49.982;8.398;2022-07-06T13:33:48;30.50;67.10
8593;DHT22;4334;49.982;8.398;2022-07-06T13:36:14;26.10;63.80
8593;DHT22;4334;49.982;8.398;2022-07-06T13:38:41;25.20;64.40
8593;DHT22;4334;49.982;8.398;2022-07-06T13:41:08;28.40;68.70
8593;DHT22;4334;49.982;8.398;2022-07-06T13:43:35;25.10;64.70
8593;DHT22;4334;49.982;8.398;2022-07-06T13:48:30;24.70;65.30
8593;DHT22;4334;49.982;8.398;2022-07-06T13:50:59;24.60;66.90
8593;DHT22;4334;49.982;8.398;2022-07-06T13:53:26;24.60;67.60
8593;DHT22;4334;49.982;8.398;2022-07-06T13:55:53;24.90;65.10
8593;DHT22;4334;49.982;8.398;2022-07-06T13:58:20;24.80;65.10
8593;DHT22;4334;49.982;8.398;2022-07-06T14:00:47;25.10;65.70
8593;DHT22;4334;49.982;8.398;2022-07-06T14:03:13;25.00;65.60
8593;DHT22;4334;49.982;8.398;2022-07-06T14:05:40;25.10;65.60
8593;DHT22;4334;49.982;8.398;2022-07-06T14:08:08;25.50;66.30
8593;DHT22;4334;49.982;8.398;2022-07-06T14:10:35;25.50;64.80
8593;DHT22;4334;49.982;8.398;2022-07-06T14:13:02;25.50;65.50
8593;DHT22;4334;49.982;8.398;2022-07-06T14:15:28;25.20;65.00
8593;DHT22;4334;49.982;8.398;2022-07-06T14:17:55;25.70;64.90
8593;DHT22;4334;49.982;8.398;2022-07-06T14:25:17;26.00;63.40
8593;DHT22;4334;49.982;8.398;2022-07-06T14:27:44;25.70;63.80
8593;DHT22;4334;49.982;8.398;2022-07-06T14:30:12;25.80;63.40
8593;DHT22;4334;49.982;8.398;2022-07-06T14:35:06;25.80;61.80
8593;DHT22;4334;49.982;8.398;2022-07-06T14:37:33;25.80;62.40
8593;DHT22;4334;49.982;8.398;2022-07-06T14:39:59;25.10;62.60
8593;DHT22;4334;49.982;8.398;2022-07-06T14:42:27;24.30;63.30
8593;DHT22;4334;49.982;8.398;2022-07-06T14:44:54;24.00;64.20
8593;DHT22;4334;49.982;8.398;2022-07-06T14:49:49;24.10;65.00
8593;DHT22;4334;49.982;8.398;2022-07-06T14:57:10;24.20;64.50
8593;DHT22;4334;49.982;8.398;2022-07-06T14:59:38;24.20;64.60
8593;DHT22;4334;49.982;8.398;2022-07-06T15:02:05;24.00;64.50
8593;DHT22;4334;49.982;8.398;2022-07-06T15:06:59;23.50;67.20
8593;DHT22;4334;49.982;8.398;2022-07-06T15:09:26;23.60;67.90
8593;DHT22;4334;49.982;8.398;2022-07-06T15:11:55;23.50;68.10
8593;DHT22;4334;49.982;8.398;2022-07-06T15:16:52;22.60;69.70
8593;DHT22;4334;49.982;8.398;2022-07-06T15:21:46;22.60;70.00
8593;DHT22;4334;49.982;8.398;2022-07-06T15:24:12;22.50;71.20
8593;DHT22;4334;49.982;8.398;2022-07-06T15:26:40;22.40;71.00
8593;DHT22;4334;49.982;8.398;2022-07-06T15:29:07;22.30;71.30
8593;DHT22;4334;49.982;8.398;2022-07-06T15:31:33;22.60;71.40
8593;DHT22;4334;49.982;8.398;2022-07-06T15:34:02;22.40;70.80
8593;DHT22;4334;49.982;8.398;2022-07-06T15:36:28;22.60;71.60
8593;DHT22;4334;49.982;8.398;2022-07-06T15:38:55;22.80;70.80
8593;DHT22;4334;49.982;8.398;2022-07-06T15:41:22;24.40;71.80
8593;DHT22;4334;49.982;8.398;2022-07-06T15:43:49;23.30;70.30
8593;DHT22;4334;49.982;8.398;2022-07-06T15:46:15;23.70;69.10
8593;DHT22;4334;49.982;8.398;2022-07-06T15:48:42;23.60;68.70
8593;DHT22;4334;49.982;8.398;2022-07-06T15:51:10;23.30;67.80
8593;DHT22;4334;49.982;8.398;2022-07-06T15:53:37;23.50;68.30
8593;DHT22;4334;49.982;8.398;2022-07-06T15:56:04;23.80;68.30
8593;DHT22;4334;49.982;8.398;2022-07-06T15:58:31;29.10;71.00
8593;DHT22;4334;49.982;8.398;2022-07-06T16:00:57;24.10;67.10
8593;DHT22;4334;49.982;8.398;2022-07-06T16:03:24;23.90;66.60
8593;DHT22;4334;49.982;8.398;2022-07-06T16:05:51;25.60;68.30
8593;DHT22;4334;49.982;8.398;2022-07-06T16:08:19;24.40;67.10
8593;DHT22;4334;49.982;8.398;2022-07-06T16:10:46;24.60;66.90
8593;DHT22;4334;49.982;8.398;2022-07-06T16:13:13;24.10;68.20
8593;DHT22;4334;49.982;8.398;2022-07-06T16:15:39;24.20;67.90
8593;DHT22;4334;49.982;8.398;2022-07-06T16:18:06;23.90;68.40
8593;DHT22;4334;49.982;8.398;2022-07-06T16:20:33;23.90;69.00
8593;DHT22;4334;49.982;8.398;2022-07-06T16:23:00;23.90;69.60
8593;DHT22;4334;49.982;8.398;2022-07-06T16:25:28;29.50;73.10
8593;DHT22;4334;49.982;8.398;2022-07-06T16:27:55;24.80;68.10
8593;DHT22;4334;49.982;8.398;2022-07-06T16:30:23;24.20;68.20
8593;DHT22;4334;49.982;8.398;2022-07-06T16:32:50;25.90;72.70
8593;DHT22;4334;49.982;8.398;2022-07-06T16:35:16;23.50;70.70
8593;DHT22;4334;49.982;8.398;2022-07-06T16:37:45;24.20;71.00
8593;DHT22;4334;49.982;8.398;2022-07-06T16:40:13;23.90;70.20
8593;DHT22;4334;49.982;8.398;2022-07-06T16:42:41;23.90;70.00
8593;DHT22;4334;49.982;8.398;2022-07-06T16:45:09;24.60;69.50
8593;DHT22;4334;49.982;8.398;2022-07-06T16:47:35;24.40;68.50
8593;DHT22;4334;49.982;8.398;2022-07-06T16:50:04;24.40;69.10
8593;DHT22;4334;49.982;8.398;2022-07-06T16:52:31;24.60;69.50
8593;DHT22;4334;49.982;8.398;2022-07-06T16:54:57;24.60;69.50
8593;DHT22;4334;49.982;8.398;2022-07-06T16:57:24;24.10;69.00
8593;DHT22;4334;49.982;8.398;2022-07-06T16:59:52;23.80;69.40
8593;DHT22;4334;49.982;8.398;2022-07-06T17:02:19;23.50;70.60
8593;DHT22;4334;49.982;8.398;2022-07-06T17:04:46;23.70;70.40
8593;DHT22;4334;49.982;8.398;2022-07-06T17:07:13;24.10;71.10
8593;DHT22;4334;49.982;8.398;2022-07-06T17:09:40;24.30;70.00
8593;DHT22;4334;49.982;8.398;2022-07-06T17:12:08;24.70;69.50
8593;DHT22;4334;49.982;8.398;2022-07-06T17:14:34;24.90;68.10
8593;DHT22;4334;49.982;8.398;2022-07-06T17:17:03;24.60;69.00
8593;DHT22;4334;49.982;8.398;2022-07-06T17:19:30;23.90;68.50
8593;DHT22;4334;49.982;8.398;2022-07-06T17:21:56;23.60;69.00
8593;DHT22;4334;49.982;8.398;2022-07-06T17:24:23;23.60;69.90